sensor_id;sensor_type;location;lat;lon;timestamp;pressure;altitude;pressure_sealevel;temperature;humidity
52651;BME280;38537;47.226;39.702;2023-01-29T00:02:17;100404.03;;;4.27;58.89
52651;BME280;38537;47.226;39.702;2023-01-29T00:04:48;100410.31;;;4.18;58.89
52651;BME280;38537;47.226;39.702;2023-01-29T00:07:15;100395.75;;;4.27;59.60
52651;BME280;38537;47.226;39.702;2023-01-29T00:09:42;100407.66;;;4.33;59.42
52651;BME280;38537;47.226;39.702;2023-01-29T00:12:09;100399.03;;;4.24;59.35
52651;BME280;38537;47.226;39.702;2023-01-29T00:14:37;100389.13;;;3.96;59.78
52651;BME280;38537;47.226;39.702;2023-01-29T00:17:05;100418.28;;;4.14;59.25
52651;BME280;38537;47.226;39.702;2023-01-29T00:19:34;100404.25;;;4.21;59.69
52651;BME280;38537;47.226;39.702;2023-01-29T00:22:01;100415.00;;;4.59;60.00
52651;BME280;38537;47.226;39.702;2023-01-29T00:24:28;100410.84;;;4.57;59.57
52651;BME280;38537;47.226;39.702;2023-01-29T00:26:56;100384.88;;;4.63;59.30
52651;BME280;38537;47.226;39.702;2023-01-29T00:29:24;100390.19;;;4.69;59.21
52651;BME280;38537;47.226;39.702;2023-01-29T00:31:51;100389.13;;;4.75;58.47
52651;BME280;38537;47.226;39.702;2023-01-29T00:34:19;100383.50;;;4.65;59.19
52651;BME280;38537;47.226;39.702;2023-01-29T00:36:47;100412.28;;;4.64;59.02
52651;BME280;38537;47.226;39.702;2023-01-29T00:39:14;100393.63;;;4.44;59.62
52651;BME280;38537;47.226;39.702;2023-01-29T00:41:41;100406.31;;;4.40;60.46
52651;BME280;38537;47.226;39.702;2023-01-29T00:44:27;100400.38;;;4.64;59.47
52651;BME280;38537;47.226;39.702;2023-01-29T00:47:14;100388.03;;;4.34;60.23
52651;BME280;38537;47.226;39.702;2023-01-29T00:49:56;100392.53;;;4.45;60.20
52651;BME280;38537;47.226;39.702;2023-01-29T00:52:24;100388.91;;;4.40;60.05
52651;BME280;38537;47.226;39.702;2023-01-29T00:54:53;100399.28;;;4.65;60.65
52651;BME280;38537;47.226;39.702;2023-01-29T00:57:21;100396.38;;;4.92;60.20
52651;BME280;38537;47.226;39.702;2023-01-29T00:59:49;100393.66;;;5.07;59.80
52651;BME280;38537;47.226;39.702;2023-01-29T01:02:16;100383.22;;;5.34;59.27
52651;BME280;38537;47.226;39.702;2023-01-29T01:05:04;100392.34;;;5.35;59.00
52651;BME280;38537;47.226;39.702;2023-01-29T01:07:41;100391.78;;;5.33;59.19
52651;BME280;38537;47.226;39.702;2023-01-29T01:10:13;100394.00;;;5.31;59.84
52651;BME280;38537;47.226;39.702;2023-01-29T01:13:01;100393.25;;;5.61;59.93
52651;BME280;38537;47.226;39.702;2023-01-29T01:15:38;100364.69;;;5.50;58.95
52651;BME280;38537;47.226;39.702;2023-01-29T01:18:06;100383.84;;;5.77;58.90
52651;BME280;38537;47.226;39.702;2023-01-29T01:20:35;100385.75;;;5.71;58.61
52651;BME280;38537;47.226;39.702;2023-01-29T01:23:03;100377.16;;;5.68;59.23
52651;BME280;38537;47.226;39.702;2023-01-29T01:25:30;100351.69;;;5.50;59.35
52651;BME280;38537;47.226;39.702;2023-01-29T01:27:58;100378.81;;;5.64;59.21
52651;BME280;38537;47.226;39.702;2023-01-29T01:30:29;100368.28;;;5.35;59.53
52651;BME280;38537;47.226;39.702;2023-01-29T01:32:57;100367.44;;;5.35;59.44
52651;BME280;38537;47.226;39.702;2023-01-29T01:35:25;100371.34;;;5.39;60.08
52651;BME280;38537;47.226;39.702;2023-01-29T01:37:52;100367.19;;;5.51;59.70
52651;BME280;38537;47.226;39.702;2023-01-29T01:40:21;100358.59;;;5.48;59.65
52651;BME280;38537;47.226;39.702;2023-01-29T01:42:54;100359.97;;;5.50;59.93
52651;BME280;38537;47.226;39.702;2023-01-29T01:45:31;100358.31;;;5.44;59.95
52651;BME280;38537;47.226;39.702;2023-01-29T01:53:34;100357.53;;;5.90;59.41
52651;BME280;38537;47.226;39.702;2023-01-29T01:56:13;100371.66;;;5.93;58.74
52651;BME280;38537;47.226;39.702;2023-01-29T01:58:49;100361.13;;;5.95;59.20
52651;BME280;38537;47.226;39.702;2023-01-29T02:01:17;100363.06;;;6.15;58.57
52651;BME280;38537;47.226;39.702;2023-01-29T02:04:02;100353.88;;;6.30;58.11
52651;BME280;38537;47.226;39.702;2023-01-29T02:06:50;100345.22;;;6.51;57.77
52651;BME280;38537;47.226;39.702;2023-01-29T02:09:41;100363.44;;;6.78;57.22
52651;BME280;38537;47.226;39.702;2023-01-29T02:12:12;100368.56;;;7.15;57.69
52651;BME280;38537;47.226;39.702;2023-01-29T02:14:41;100370.03;;;6.97;57.03
52651;BME280;38537;47.226;39.702;2023-01-29T02:17:30;100366.75;;;6.90;56.79
52651;BME280;38537;47.226;39.702;2023-01-29T02:20:14;100368.97;;;6.88;57.54
52651;BME280;38537;47.226;39.702;2023-01-29T02:26:19;100304.84;;;6.15;58.27
52651;BME280;38537;47.226;39.702;2023-01-29T02:29:26;100359.41;;;6.45;57.93
52651;BME280;38537;47.226;39.702;2023-01-29T02:34:56;100374.94;;;6.36;58.50
52651;BME280;38537;47.226;39.702;2023-01-29T02:37:56;100384.06;;;6.57;58.30
52651;BME280;38537;47.226;39.702;2023-01-29T02:43:04;100364.91;;;6.65;58.10
52651;BME280;38537;47.226;39.702;2023-01-29T02:48:13;100319.75;;;6.39;58.11
52651;BME280;38537;47.226;39.702;2023-01-29T02:53:16;100354.69;;;6.45;58.46
52651;BME280;38537;47.226;39.702;2023-01-29T02:55:54;100342.78;;;6.45;58.89
52651;BME280;38537;47.226;39.702;2023-01-29T03:00:50;100355.97;;;6.73;57.78
52651;BME280;38537;47.226;39.702;2023-01-29T03:03:36;100348.16;;;6.85;57.81
52651;BME280;38537;47.226;39.702;2023-01-29T03:06:20;100363.72;;;6.86;58.06
52651;BME280;38537;47.226;39.702;2023-01-29T03:08:55;100364.28;;;6.78;57.76
52651;BME280;38537;47.226;39.702;2023-01-29T03:11:27;100353.38;;;6.97;58.00
52651;BME280;38537;47.226;39.702;2023-01-29T03:14:02;100358.16;;;6.92;57.59
52651;BME280;38537;47.226;39.702;2023-01-29T03:16:44;100373.44;;;6.84;57.78
52651;BME280;38537;47.226;39.702;2023-01-29T03:19:26;100360.16;;;6.71;58.23
52651;BME280;38537;47.226;39.702;2023-01-29T03:21:57;100354.06;;;6.69;58.08
52651;BME280;38537;47.226;39.702;2023-01-29T03:24:43;100370.66;;;6.79;58.22
52651;BME280;38537;47.226;39.702;2023-01-29T03:27:43;100367.97;;;6.59;58.89
52651;BME280;38537;47.226;39.702;2023-01-29T03:30:42;100377.94;;;6.70;58.32
52651;BME280;38537;47.226;39.702;2023-01-29T03:33:47;100376.00;;;6.65;58.40
52651;BME280;38537;47.226;39.702;2023-01-29T03:36:38;100373.22;;;6.65;58.70
52651;BME280;38537;47.226;39.702;2023-01-29T03:39:12;100368.16;;;6.77;58.49
52651;BME280;38537;47.226;39.702;2023-01-29T03:41:59;100372.03;;;6.86;58.86
52651;BME280;38537;47.226;39.702;2023-01-29T03:48:17;100363.28;;;6.44;59.10
52651;BME280;38537;47.226;39.702;2023-01-29T03:53:29;100381.06;;;6.33;60.49
52651;BME280;38537;47.226;39.702;2023-01-29T03:59:01;100376.56;;;6.57;60.24
52651;BME280;38537;47.226;39.702;2023-01-29T04:01:56;100389.38;;;6.43;59.40
52651;BME280;38537;47.226;39.702;2023-01-29T04:04:30;100368.03;;;6.28;60.00
52651;BME280;38537;47.226;39.702;2023-01-29T04:07:09;100364.72;;;6.11;59.97
52651;BME280;38537;47.226;39.702;2023-01-29T04:10:18;100226.22;;;5.25;60.28
52651;BME280;38537;47.226;39.702;2023-01-29T04:12:59;100351.97;;;6.10;60.40
52651;BME280;38537;47.226;39.702;2023-01-29T04:15:35;100353.38;;;5.97;60.63
52651;BME280;38537;47.226;39.702;2023-01-29T04:18:12;100364.47;;;6.02;60.37
52651;BME280;38537;47.226;39.702;2023-01-29T04:21:02;100318.44;;;5.71;60.25
52651;BME280;38537;47.226;39.702;2023-01-29T04:23:36;100365.84;;;6.15;60.47
52651;BME280;38537;47.226;39.702;2023-01-29T04:29:19;100381.56;;;6.50;60.35
52651;BME280;38537;47.226;39.702;2023-01-29T04:38:03;100384.59;;;6.69;59.73
52651;BME280;38537;47.226;39.702;2023-01-29T04:43:51;100384.03;;;6.67;59.74
52651;BME280;38537;47.226;39.702;2023-01-29T04:46:26;100376.59;;;6.42;60.06
52651;BME280;38537;47.226;39.702;2023-01-29T04:49:23;100359.47;;;6.19;60.23
52651;BME280;38537;47.226;39.702;2023-01-29T04:51:59;100380.53;;;6.10;60.83
52651;BME280;38537;47.226;39.702;2023-01-29T04:54:58;100366.38;;;6.17;61.29
52651;BME280;38537;47.226;39.702;2023-01-29T04:57:33;100387.19;;;6.25;60.83
52651;BME280;38537;47.226;39.702;2023-01-29T05:00:12;100367.78;;;6.19;60.91
52651;BME280;38537;47.226;39.702;2023-01-29T05:02:43;100396.31;;;6.15;60.67
52651;BME280;38537;47.226;39.702;2023-01-29T05:05:12;100401.03;;;6.25;61.01
52651;BME280;38537;47.226;39.702;2023-01-29T05:07:42;100380.81;;;5.99;60.91
52651;BME280;38537;47.226;39.702;2023-01-29T05:10:10;100408.25;;;6.00;61.28
52651;BME280;38537;47.226;39.702;2023-01-29T05:12:39;100399.09;;;5.95;61.79
52651;BME280;38537;47.226;39.702;2023-01-29T05:15:14;100407.72;;;6.03;62.09
52651;BME280;38537;47.226;39.702;2023-01-29T05:17:43;100390.47;;;5.86;61.44
52651;BME280;38537;47.226;39.702;2023-01-29T05:20:10;100391.91;;;5.89;61.32
52651;BME280;38537;47.226;39.702;2023-01-29T05:22:42;100389.38;;;5.82;62.01
52651;BME280;38537;47.226;39.702;2023-01-29T05:25:24;100403.78;;;5.79;62.98
52651;BME280;38537;47.226;39.702;2023-01-29T05:27:52;100406.84;;;5.82;62.42
52651;BME280;38537;47.226;39.702;2023-01-29T05:30:44;100398.22;;;5.69;62.29
52651;BME280;38537;47.226;39.702;2023-01-29T05:33:20;100407.66;;;5.88;62.88
52651;BME280;38537;47.226;39.702;2023-01-29T05:35:48;100396.00;;;5.86;61.83
52651;BME280;38537;47.226;39.702;2023-01-29T05:38:17;100408.22;;;5.80;62.03
52651;BME280;38537;47.226;39.702;2023-01-29T05:40:44;100413.75;;;5.85;62.41
52651;BME280;38537;47.226;39.702;2023-01-29T05:43:17;100382.44;;;5.69;62.26
52651;BME280;38537;47.226;39.702;2023-01-29T05:45:56;100408.81;;;5.92;62.36
52651;BME280;38537;47.226;39.702;2023-01-29T05:48:24;100412.38;;;5.88;62.28
52651;BME280;38537;47.226;39.702;2023-01-29T05:50:59;100414.88;;;5.79;62.64
52651;BME280;38537;47.226;39.702;2023-01-29T05:53:31;100414.28;;;5.67;62.90
52651;BME280;38537;47.226;39.702;2023-01-29T05:56:02;100379.91;;;5.47;62.85
52651;BME280;38537;47.226;39.702;2023-01-29T05:58:31;100407.91;;;5.71;62.93
52651;BME280;38537;47.226;39.702;2023-01-29T06:01:11;100409.31;;;5.79;63.17
52651;BME280;38537;47.226;39.702;2023-01-29T06:03:39;100396.03;;;5.76;62.45
52651;BME280;38537;47.226;39.702;2023-01-29T06:06:06;100410.47;;;6.03;62.24
52651;BME280;38537;47.226;39.702;2023-01-29T06:08:34;100411.56;;;6.07;62.02
52651;BME280;38537;47.226;39.702;2023-01-29T06:11:01;100393.28;;;5.91;62.34
52651;BME280;38537;47.226;39.702;2023-01-29T06:13:29;100391.91;;;5.94;61.40
52651;BME280;38537;47.226;39.702;2023-01-29T06:15:58;100408.78;;;6.07;61.91
52651;BME280;38537;47.226;39.702;2023-01-29T06:18:25;100391.03;;;5.88;61.86
52651;BME280;38537;47.226;39.702;2023-01-29T06:20:52;100399.38;;;5.93;61.67
52651;BME280;38537;47.226;39.702;2023-01-29T06:23:19;100393.84;;;5.98;61.75
52651;BME280;38537;47.226;39.702;2023-01-29T06:25:46;100398.56;;;6.23;61.27
52651;BME280;38537;47.226;39.702;2023-01-29T06:28:13;100410.72;;;6.32;60.91
52651;BME280;38537;47.226;39.702;2023-01-29T06:30:40;100402.13;;;6.44;61.37
52651;BME280;38537;47.226;39.702;2023-01-29T06:33:08;100398.28;;;6.19;61.40
52651;BME280;38537;47.226;39.702;2023-01-29T06:35:35;100404.94;;;6.24;61.08
52651;BME280;38537;47.226;39.702;2023-01-29T06:38:03;100391.63;;;6.26;61.06
52651;BME280;38537;47.226;39.702;2023-01-29T06:40:30;100401.00;;;6.40;61.46
52651;BME280;38537;47.226;39.702;2023-01-29T06:42:59;100407.69;;;6.18;61.04
52651;BME280;38537;47.226;39.702;2023-01-29T06:45:27;100386.91;;;6.11;61.07
52651;BME280;38537;47.226;39.702;2023-01-29T06:47:55;100401.88;;;6.10;61.44
52651;BME280;38537;47.226;39.702;2023-01-29T06:50:22;100388.56;;;5.92;61.76
52651;BME280;38537;47.226;39.702;2023-01-29T06:52:49;100384.91;;;5.66;62.07
52651;BME280;38537;47.226;39.702;2023-01-29T06:55:17;100399.34;;;5.88;62.45
52651;BME280;38537;47.226;39.702;2023-01-29T06:57:44;100392.13;;;5.87;61.65
52651;BME280;38537;47.226;39.702;2023-01-29T07:00:12;100382.75;;;5.93;62.24
52651;BME280;38537;47.226;39.702;2023-01-29T07:02:40;100373.34;;;5.94;61.92
52651;BME280;38537;47.226;39.702;2023-01-29T07:05:07;100373.91;;;6.01;61.82
52651;BME280;38537;47.226;39.702;2023-01-29T07:07:35;100384.69;;;6.18;61.79
52651;BME280;38537;47.226;39.702;2023-01-29T07:10:03;100384.97;;;6.27;61.76
52651;BME280;38537;47.226;39.702;2023-01-29T07:12:31;100378.81;;;6.45;61.46
52651;BME280;38537;47.226;39.702;2023-01-29T07:15:02;100355.00;;;6.29;61.11
52651;BME280;38537;47.226;39.702;2023-01-29T07:17:29;100375.47;;;6.53;61.44
52651;BME280;38537;47.226;39.702;2023-01-29T07:19:57;100382.66;;;6.59;61.03
52651;BME280;38537;47.226;39.702;2023-01-29T07:22:25;100372.69;;;6.58;60.65
52651;BME280;38537;47.226;39.702;2023-01-29T07:24:52;100387.66;;;6.52;60.90
52651;BME280;38537;47.226;39.702;2023-01-29T07:27:22;100379.34;;;6.52;60.97
52651;BME280;38537;47.226;39.702;2023-01-29T07:29:49;100370.22;;;6.41;60.99
52651;BME280;38537;47.226;39.702;2023-01-29T07:32:18;100377.09;;;6.64;60.75
52651;BME280;38537;47.226;39.702;2023-01-29T07:34:45;100372.09;;;6.66;60.80
52651;BME280;38537;47.226;39.702;2023-01-29T07:37:13;100371.00;;;6.62;60.86
52651;BME280;38537;47.226;39.702;2023-01-29T07:39:41;100350.53;;;6.48;60.85
52651;BME280;38537;47.226;39.702;2023-01-29T07:42:08;100356.63;;;6.40;61.02
52651;BME280;38537;47.226;39.702;2023-01-29T07:44:38;100363.03;;;6.30;61.32
52651;BME280;38537;47.226;39.702;2023-01-29T07:47:07;100373.25;;;6.50;61.41
52651;BME280;38537;47.226;39.702;2023-01-29T07:49:34;100375.75;;;6.51;61.17
52651;BME280;38537;47.226;39.702;2023-01-29T07:52:01;100355.75;;;6.60;61.48
52651;BME280;38537;47.226;39.702;2023-01-29T07:54:29;100374.03;;;6.71;61.33
52651;BME280;38537;47.226;39.702;2023-01-29T07:56:59;100369.28;;;6.76;60.85
52651;BME280;38537;47.226;39.702;2023-01-29T07:59:26;100356.88;;;6.59;60.90
52651;BME280;38537;47.226;39.702;2023-01-29T08:01:53;100339.97;;;6.50;61.38
52651;BME280;38537;47.226;39.702;2023-01-29T08:04:20;100346.66;;;6.44;61.31
52651;BME280;38537;47.226;39.702;2023-01-29T08:06:48;100358.31;;;6.46;61.38
52651;BME280;38537;47.226;39.702;2023-01-29T08:09:16;100344.72;;;6.39;61.82
52651;BME280;38537;47.226;39.702;2023-01-29T08:11:43;100343.06;;;6.43;61.84
52651;BME280;38537;47.226;39.702;2023-01-29T08:14:10;100340.84;;;6.40;61.80
52651;BME280;38537;47.226;39.702;2023-01-29T08:16:37;100258.03;;;6.03;62.10
52651;BME280;38537;47.226;39.702;2023-01-29T08:19:05;100322.19;;;6.56;61.89
52651;BME280;38537;47.226;39.702;2023-01-29T08:21:32;100318.84;;;6.59;61.86
52651;BME280;38537;47.226;39.702;2023-01-29T08:23:59;100315.47;;;6.72;61.73
52651;BME280;38537;47.226;39.702;2023-01-29T08:26:27;100322.94;;;6.77;61.29
52651;BME280;38537;47.226;39.702;2023-01-29T08:28:54;100312.09;;;6.80;60.92
52651;BME280;38537;47.226;39.702;2023-01-29T08:31:21;100282.72;;;6.74;61.35
52651;BME280;38537;47.226;39.702;2023-01-29T08:33:48;100279.09;;;6.74;61.52
52651;BME280;38537;47.226;39.702;2023-01-29T08:36:16;100295.53;;;6.70;61.41
52651;BME280;38537;47.226;39.702;2023-01-29T08:38:43;100291.75;;;7.00;61.36
52651;BME280;38537;47.226;39.702;2023-01-29T08:41:11;100276.19;;;7.04;60.53
52651;BME280;38537;47.226;39.702;2023-01-29T08:43:39;100286.59;;;7.22;60.44
52651;BME280;38537;47.226;39.702;2023-01-29T08:46:06;100304.19;;;7.13;59.87
52651;BME280;38537;47.226;39.702;2023-01-29T08:48:34;100311.47;;;7.38;60.37
52651;BME280;38537;47.226;39.702;2023-01-29T08:51:03;100311.75;;;7.41;59.18
52651;BME280;38537;47.226;39.702;2023-01-29T08:53:32;100292.16;;;7.22;59.53
52651;BME280;38537;47.226;39.702;2023-01-29T08:56:00;100297.13;;;7.26;59.50
52651;BME280;38537;47.226;39.702;2023-01-29T08:58:27;100293.75;;;7.34;59.53
52651;BME280;38537;47.226;39.702;2023-01-29T09:00:55;100291.75;;;7.39;59.85
52651;BME280;38537;47.226;39.702;2023-01-29T09:03:23;100275.63;;;7.41;59.41
52651;BME280;38537;47.226;39.702;2023-01-29T09:05:51;100281.47;;;7.40;59.20
52651;BME280;38537;47.226;39.702;2023-01-29T09:08:18;100303.31;;;7.56;59.57
52651;BME280;38537;47.226;39.702;2023-01-29T09:10:46;100287.25;;;7.48;59.32
52651;BME280;38537;47.226;39.702;2023-01-29T09:13:13;100283.97;;;7.41;59.54
52651;BME280;38537;47.226;39.702;2023-01-29T09:15:40;100285.34;;;7.44;59.65
52651;BME280;38537;47.226;39.702;2023-01-29T09:18:07;100278.22;;;7.33;59.52
52651;BME280;38537;47.226;39.702;2023-01-29T09:20:36;100270.84;;;7.13;60.02
52651;BME280;38537;47.226;39.702;2023-01-29T09:23:07;100253.97;;;7.04;60.12
52651;BME280;38537;47.226;39.702;2023-01-29T09:25:35;100290.03;;;7.48;59.86
52651;BME280;38537;47.226;39.702;2023-01-29T09:28:02;100277.47;;;7.17;59.77
52651;BME280;38537;47.226;39.702;2023-01-29T09:30:30;100277.16;;;7.23;60.46
52651;BME280;38537;47.226;39.702;2023-01-29T09:32:59;100288.56;;;7.17;59.92
52651;BME280;38537;47.226;39.702;2023-01-29T09:35:27;100289.59;;;7.31;60.02
52651;BME280;38537;47.226;39.702;2023-01-29T09:37:55;100272.41;;;7.29;60.40
52651;BME280;38537;47.226;39.702;2023-01-29T09:40:25;100276.91;;;7.20;60.06
52651;BME280;38537;47.226;39.702;2023-01-29T09:42:57;100275.53;;;7.17;60.50
52651;BME280;38537;47.226;39.702;2023-01-29T09:45:28;100275.50;;;7.22;59.98
52651;BME280;38537;47.226;39.702;2023-01-29T09:47:59;100293.38;;;7.45;60.17
52651;BME280;38537;47.226;39.702;2023-01-29T09:50:36;100273.34;;;7.48;59.66
52651;BME280;38537;47.226;39.702;2023-01-29T09:53:30;100271.13;;;7.50;59.82
52651;BME280;38537;47.226;39.702;2023-01-29T09:56:02;100273.31;;;7.53;59.89
52651;BME280;38537;47.226;39.702;2023-01-29T09:58:39;100272.94;;;7.65;59.83
52651;BME280;38537;47.226;39.702;2023-01-29T10:03:46;100259.94;;;7.89;58.89
52651;BME280;38537;47.226;39.702;2023-01-29T10:09:45;100259.81;;;8.23;58.66
52651;BME280;38537;47.226;39.702;2023-01-29T10:25:47;100229.78;;;7.73;58.66
52651;BME280;38537;47.226;39.702;2023-01-29T10:31:08;100235.44;;;7.63;58.74
52651;BME280;38537;47.226;39.702;2023-01-29T10:33:42;100249.25;;;7.73;58.53
52651;BME280;38537;47.226;39.702;2023-01-29T10:36:48;100254.84;;;7.68;58.80
52651;BME280;38537;47.226;39.702;2023-01-29T10:39:25;100254.72;;;7.54;58.70
52651;BME280;38537;47.226;39.702;2023-01-29T10:45:09;100249.59;;;7.66;58.91
52651;BME280;38537;47.226;39.702;2023-01-29T10:56:22;100250.53;;;7.56;59.06
52651;BME280;38537;47.226;39.702;2023-01-29T10:59:00;100264.56;;;7.36;58.86
52651;BME280;38537;47.226;39.702;2023-01-29T11:01:31;100229.78;;;7.10;58.75
52651;BME280;38537;47.226;39.702;2023-01-29T11:04:01;100239.72;;;7.16;58.90
52651;BME280;38537;47.226;39.702;2023-01-29T11:06:34;100234.41;;;7.19;59.05
52651;BME280;38537;47.226;39.702;2023-01-29T11:12:20;100223.69;;;7.08;59.30
52651;BME280;38537;47.226;39.702;2023-01-29T11:15:04;100241.66;;;7.15;59.51
52651;BME280;38537;47.226;39.702;2023-01-29T11:17:32;100204.59;;;6.96;59.25
52651;BME280;38537;47.226;39.702;2023-01-29T11:20:00;100212.38;;;6.94;59.49
52651;BME280;38537;47.226;39.702;2023-01-29T11:22:29;100220.41;;;7.01;58.92
52651;BME280;38537;47.226;39.702;2023-01-29T11:27:39;100226.94;;;7.15;58.57
52651;BME280;38537;47.226;39.702;2023-01-29T11:31:00;100224.09;;;7.25;59.13
52651;BME280;38537;47.226;39.702;2023-01-29T11:33:22;100235.06;;;7.40;59.16
52651;BME280;38537;47.226;39.702;2023-01-29T11:35:49;100220.19;;;7.31;58.17
52651;BME280;38537;47.226;39.702;2023-01-29T11:38:22;100218.03;;;7.18;58.02
52651;BME280;38537;47.226;39.702;2023-01-29T11:41:06;100226.44;;;7.13;58.14
52651;BME280;38537;47.226;39.702;2023-01-29T11:43:35;100228.09;;;7.14;58.40
52651;BME280;38537;47.226;39.702;2023-01-29T11:46:11;100235.50;;;7.23;58.08
52651;BME280;38537;47.226;39.702;2023-01-29T11:48:48;100209.22;;;7.11;58.40
52651;BME280;38537;47.226;39.702;2023-01-29T11:51:23;100242.97;;;7.28;58.26
52651;BME280;38537;47.226;39.702;2023-01-29T11:53:55;100217.16;;;7.28;58.23
52651;BME280;38537;47.226;39.702;2023-01-29T11:56:47;100231.56;;;7.58;57.95
52651;BME280;38537;47.226;39.702;2023-01-29T11:59:38;100225.13;;;7.68;57.68
52651;BME280;38537;47.226;39.702;2023-01-29T12:04:57;100201.34;;;7.57;57.37
52651;BME280;38537;47.226;39.702;2023-01-29T12:07:26;100228.97;;;7.72;57.28
52651;BME280;38537;47.226;39.702;2023-01-29T12:09:56;100224.03;;;7.64;56.67
52651;BME280;38537;47.226;39.702;2023-01-29T12:12:36;100223.06;;;7.79;57.36
52651;BME280;38537;47.226;39.702;2023-01-29T12:15:15;100224.03;;;7.93;56.58
52651;BME280;38537;47.226;39.702;2023-01-29T12:17:51;100208.03;;;8.04;56.22
52651;BME280;38537;47.226;39.702;2023-01-29T12:20:32;100208.59;;;8.06;55.66
52651;BME280;38537;47.226;39.702;2023-01-29T12:23:21;100222.97;;;8.13;55.39
52651;BME280;38537;47.226;39.702;2023-01-29T12:26:07;100228.84;;;8.11;55.63
52651;BME280;38537;47.226;39.702;2023-01-29T12:31:32;100215.66;;;7.69;55.60
52651;BME280;38537;47.226;39.702;2023-01-29T12:37:26;100249.00;;;7.98;55.53
52651;BME280;38537;47.226;39.702;2023-01-29T12:39:57;100247.06;;;7.99;55.50
52651;BME280;38537;47.226;39.702;2023-01-29T12:42:24;100225.91;;;7.74;54.97
52651;BME280;38537;47.226;39.702;2023-01-29T12:44:55;100216.28;;;7.61;55.14
52651;BME280;38537;47.226;39.702;2023-01-29T12:47:32;100228.81;;;7.58;55.03
52651;BME280;38537;47.226;39.702;2023-01-29T12:50:13;100224.44;;;7.52;55.77
52651;BME280;38537;47.226;39.702;2023-01-29T12:52:52;100244.59;;;7.63;55.49
52651;BME280;38537;47.226;39.702;2023-01-29T12:55:31;100237.13;;;7.58;55.60
52651;BME280;38537;47.226;39.702;2023-01-29T12:58:04;100237.78;;;7.50;55.39
52651;BME280;38537;47.226;39.702;2023-01-29T13:00:39;100240.28;;;7.52;55.53
52651;BME280;38537;47.226;39.702;2023-01-29T13:08:33;100254.19;;;7.47;55.38
52651;BME280;38537;47.226;39.702;2023-01-29T13:11:05;100250.16;;;7.34;54.81
52651;BME280;38537;47.226;39.702;2023-01-29T13:16:05;100219.16;;;7.17;55.59
52651;BME280;38537;47.226;39.702;2023-01-29T13:18:47;100249.50;;;7.42;55.53
52651;BME280;38537;47.226;39.702;2023-01-29T13:21:26;100258.47;;;7.34;55.36
52651;BME280;38537;47.226;39.702;2023-01-29T13:24:01;100237.03;;;7.06;55.17
52651;BME280;38537;47.226;39.702;2023-01-29T13:26:29;100238.94;;;7.10;55.40
52651;BME280;38537;47.226;39.702;2023-01-29T13:28:58;100255.63;;;7.39;55.93
52651;BME280;38537;47.226;39.702;2023-01-29T13:31:46;100253.81;;;7.58;55.97
52651;BME280;38537;47.226;39.702;2023-01-29T13:34:23;100248.59;;;7.81;55.38
52651;BME280;38537;47.226;39.702;2023-01-29T13:36:54;100231.41;;;7.79;54.99
52651;BME280;38537;47.226;39.702;2023-01-29T13:39:34;100222.84;;;7.99;54.95
52651;BME280;38537;47.226;39.702;2023-01-29T13:42:16;100224.28;;;7.97;54.04
52651;BME280;38537;47.226;39.702;2023-01-29T13:44:49;100234.03;;;7.94;53.61
52651;BME280;38537;47.226;39.702;2023-01-29T13:47:25;100246.63;;;8.10;54.30
52651;BME280;38537;47.226;39.702;2023-01-29T13:50:31;100251.38;;;8.10;53.74
52651;BME280;38537;47.226;39.702;2023-01-29T13:53:03;100258.00;;;7.85;54.16
52651;BME280;38537;47.226;39.702;2023-01-29T13:55:34;100254.56;;;7.69;54.03
52651;BME280;38537;47.226;39.702;2023-01-29T13:58:08;100254.25;;;7.42;54.67
52651;BME280;38537;47.226;39.702;2023-01-29T14:10:41;100270.75;;;7.28;55.87
52651;BME280;38537;47.226;39.702;2023-01-29T14:18:35;100219.13;;;7.56;54.76
52651;BME280;38537;47.226;39.702;2023-01-29T14:21:29;100241.88;;;7.87;54.67
52651;BME280;38537;47.226;39.702;2023-01-29T14:24:10;100236.66;;;7.51;53.79
52651;BME280;38537;47.226;39.702;2023-01-29T14:26:44;100256.31;;;7.26;53.94
52651;BME280;38537;47.226;39.702;2023-01-29T14:32:13;100271.91;;;6.73;55.17
52651;BME280;38537;47.226;39.702;2023-01-29T14:35:01;100246.19;;;6.57;56.14
52651;BME280;38537;47.226;39.702;2023-01-29T14:37:33;100277.78;;;6.66;56.14
52651;BME280;38537;47.226;39.702;2023-01-29T14:43:07;100276.00;;;6.85;55.69
52651;BME280;38537;47.226;39.702;2023-01-29T14:45:49;100275.50;;;6.73;55.37
52651;BME280;38537;47.226;39.702;2023-01-29T14:48:38;100278.81;;;6.80;56.03
52651;BME280;38537;47.226;39.702;2023-01-29T14:51:11;100268.88;;;6.69;56.00
52651;BME280;38537;47.226;39.702;2023-01-29T14:53:53;100263.53;;;6.83;55.88
52651;BME280;38537;47.226;39.702;2023-01-29T14:56:35;100279.91;;;6.79;55.33
52651;BME280;38537;47.226;39.702;2023-01-29T14:59:26;100281.56;;;6.85;55.72
52651;BME280;38537;47.226;39.702;2023-01-29T15:01:59;100264.09;;;6.85;55.64
52651;BME280;38537;47.226;39.702;2023-01-29T15:04:37;100277.97;;;6.85;55.33
52651;BME280;38537;47.226;39.702;2023-01-29T15:07:13;100282.88;;;6.93;54.98
52651;BME280;38537;47.226;39.702;2023-01-29T15:09:49;100261.22;;;6.95;55.43
52651;BME280;38537;47.226;39.702;2023-01-29T15:12:45;100278.91;;;7.14;54.63
52651;BME280;38537;47.226;39.702;2023-01-29T15:15:19;100295.09;;;7.36;55.17
52651;BME280;38537;47.226;39.702;2023-01-29T15:17:58;100286.84;;;7.31;54.14
52651;BME280;38537;47.226;39.702;2023-01-29T15:20:33;100296.25;;;7.35;54.52
52651;BME280;38537;47.226;39.702;2023-01-29T15:23:01;100282.53;;;7.49;54.58
52651;BME280;38537;47.226;39.702;2023-01-29T15:25:36;100300.22;;;7.58;54.17
52651;BME280;38537;47.226;39.702;2023-01-29T15:28:15;100276.13;;;7.48;53.88